Aviation Digital Data Service (ADDS)

Output produced by METARs form (1341 UTC 21 August 2019)
found at http://www.aviationweather.gov/metar/data/
 
Forecast for: FTTJ (NDJAMENA (CIV/MI, TD)
Text: TAF FTTJ 211100Z 2112/2218 20010KT 9999 SCT030
Forecast period: 1200 UTC 21 August 2019 to 1800 UTC 22 August 2019
Forecast type: FROM: standard forecast or significant change
Winds: from the SSW (200 degrees) at 12 MPH (10 knots; 5.1 m/s)
Visibility: 6 or more miles 10+ km)
Ceiling: at least 12,000 feet AGL
Clouds: scattered clouds at 3000 feet AGL
Weather: no significant weather forecast for this period
Text: PROB30
Forecast period: 1400 to 2200 UTC 21 August 2019
Forecast type: TEMPORARY: The following changes expected for less than half the time period
Visibility: 1.86 miles (2.99 km)
Ceiling: unknown
Clouds: missing
Weather: TSRA  (rain associated with thunderstorm(s))
Text: TEMPO 2114/2122 3000 TSRA
Forecast period: 1200 to 1800 UTC 22 August 2019
Forecast type: TEMPORARY: The following changes expected for less than half the time period
Visibility: 2.49 miles (4.01 km)
Ceiling: unknown
Clouds: missing
Weather: TSRA  (rain associated with thunderstorm(s))